Bahrain International Airport
OBBI : rendu visible

Aérodrome :











RETROUVEZ-NOUS SUR...

 
LOGIN :

S'inscrire | Disclaimer

   EN    FR    IT 

 









Légende :    VFR   VFR Marginal   IFR   IFR Intensif   IFR Très Intensif
Visi : 
Plafond : 
>= 8 km
>= 3000ft
5 à 8 km
1000 à 3000 ft
1500m à 5 km
500 à 1000 ft
800 à 1500m
200 à 500 ft
< 800m
< 200 ft
Symboles :   Orages  Brouillard  Fortes neiges  Fortes précipitations  Vent > 20 kt







- Altitude de l'aérodrome : 6 ft
- Code IATA : BAH


OBBI - Bahrain International

DERNIER METAR :
  • 181600Z 02005KT 350V050 CAVOK 21/10 Q1018 NOSIG

METARs EXPIRÉS :
  • 181530Z 01006KT 330V040 CAVOK 21/10 Q1018 NOSIG
  • 181500Z 02007KT 350V060 CAVOK 21/10 Q1017 NOSIG
  • 181430Z 36007KT CAVOK 22/09 Q1017 NOSIG
  • 181400Z 01009KT CAVOK 22/09 Q1017 NOSIG
  • 181330Z 36010KT CAVOK 23/08 Q1017 NOSIG

TAF TAF OBBI
Valide du 18 à 12h jusqu'au 19 à 18h UTC


181100Z 1812/1918 34010KT 8000 NSC
FIR OBBB / Asie



MET'MAP, la Météo Aéronautique d'un coup d'oeil ! - Copyright ORBIFLY Décembre 2007 - Disclaimer

ORBIFLY MET'MAP TEAM :

Programmation & Développement : Alexandra Zaïnal
Conception & Développement : Baudouin d'Aumeries
Co-Programmation & Développement : Marc-Olivier Méhu
Soutien technique & logistique : Manuel Goepfert

Contact : metmap@orbifly.com




SOURCES & CREDITS :

   NOAA       Earth
Advisory